Country
Station

 

Weather  for  Farnborough  -  United Kingdom    United Kingdom

  
5 °C (41 °F)
    
 
 

Current METAR for Farnborough is :

EGLF 111920Z 12005KT 100V160 9000 NSC 05/04 Q1022

 

This is a report for Farnborough - United Kingdom.
 
The report was made 8 minutes ago, at 19:20 UTC .
The wind was blowing at a speed of 2.6 meters per second (5.8 miles per hour) from east/southeast (120°), varying between east (100°) and south/southeast (160°).
 
The temperature was 5 °C (41 °F), with a dew-point at 4 °C (39 °F).
The atmospheric pressure was 1022 hPa (30.18 inHg).
The relative humidity was 93.2%.
 
The overall visibility was 9.0 kilometers (5.6 miles).
 

 
 
 
 

Country :   A   B   C   D   E   F   G   H   I   J   K   L   M   N   O   P   Q   R   S   T   U   V   W   Y   Z

 

Site Info  |  Disclaimer  |  Credits  |  Privacy
Contact us  |  Add to favorites
© 2013-2018 METARs - All rights reserved